sensor_id;sensor_type;location;lat;lon;timestamp;P1;durP1;ratioP1;P2;durP2;ratioP2
50543;SDS011;41176;44.032;20.900;2022-11-15T00:01:57;9.73;;;3.47;;
50543;SDS011;41176;44.032;20.900;2022-11-15T00:04:23;5.15;;;2.20;;
50543;SDS011;41176;44.032;20.900;2022-11-15T00:06:48;5.57;;;2.47;;
50543;SDS011;41176;44.032;20.900;2022-11-15T00:09:14;3.65;;;2.05;;
50543;SDS011;41176;44.032;20.900;2022-11-15T00:11:40;7.03;;;2.88;;
50543;SDS011;41176;44.032;20.900;2022-11-15T00:14:06;3.97;;;2.00;;
50543;SDS011;41176;44.032;20.900;2022-11-15T00:16:31;2.85;;;2.33;;
50543;SDS011;41176;44.032;20.900;2022-11-15T00:18:57;4.22;;;2.28;;
50543;SDS011;41176;44.032;20.900;2022-11-15T00:21:23;3.00;;;1.90;;
50543;SDS011;41176;44.032;20.900;2022-11-15T00:23:49;3.25;;;1.98;;
50543;SDS011;41176;44.032;20.900;2022-11-15T00:26:14;2.20;;;1.17;;
50543;SDS011;41176;44.032;20.900;2022-11-15T00:28:41;4.30;;;2.22;;
50543;SDS011;41176;44.032;20.900;2022-11-15T00:31:08;9.20;;;1.83;;
50543;SDS011;41176;44.032;20.900;2022-11-15T00:33:37;4.78;;;3.30;;
50543;SDS011;41176;44.032;20.900;2022-11-15T00:36:04;5.60;;;2.45;;
50543;SDS011;41176;44.032;20.900;2022-11-15T00:38:32;5.95;;;2.90;;
50543;SDS011;41176;44.032;20.900;2022-11-15T00:40:58;2.40;;;1.05;;
50543;SDS011;41176;44.032;20.900;2022-11-15T00:43:24;4.65;;;2.17;;
50543;SDS011;41176;44.032;20.900;2022-11-15T00:45:50;2.78;;;1.80;;
50543;SDS011;41176;44.032;20.900;2022-11-15T00:48:16;2.75;;;2.00;;
50543;SDS011;41176;44.032;20.900;2022-11-15T00:50:41;1.38;;;1.08;;
50543;SDS011;41176;44.032;20.900;2022-11-15T00:53:07;3.38;;;1.83;;
50543;SDS011;41176;44.032;20.900;2022-11-15T00:55:33;2.90;;;1.83;;
50543;SDS011;41176;44.032;20.900;2022-11-15T00:57:58;2.50;;;1.55;;
50543;SDS011;41176;44.032;20.900;2022-11-15T01:00:24;2.67;;;1.58;;
50543;SDS011;41176;44.032;20.900;2022-11-15T01:02:50;3.75;;;2.03;;
50543;SDS011;41176;44.032;20.900;2022-11-15T01:05:16;4.18;;;2.03;;
50543;SDS011;41176;44.032;20.900;2022-11-15T01:07:42;13.60;;;3.10;;
50543;SDS011;41176;44.032;20.900;2022-11-15T01:10:07;3.97;;;2.72;;
50543;SDS011;41176;44.032;20.900;2022-11-15T01:12:33;3.92;;;2.05;;
50543;SDS011;41176;44.032;20.900;2022-11-15T01:14:59;4.75;;;2.75;;
50543;SDS011;41176;44.032;20.900;2022-11-15T01:17:25;5.13;;;1.70;;
50543;SDS011;41176;44.032;20.900;2022-11-15T01:19:51;2.97;;;2.38;;
50543;SDS011;41176;44.032;20.900;2022-11-15T01:22:16;3.35;;;1.58;;
50543;SDS011;41176;44.032;20.900;2022-11-15T01:24:42;4.25;;;2.45;;
50543;SDS011;41176;44.032;20.900;2022-11-15T01:27:08;5.85;;;3.00;;
50543;SDS011;41176;44.032;20.900;2022-11-15T01:29:34;3.55;;;2.30;;
50543;SDS011;41176;44.032;20.900;2022-11-15T01:32:00;5.70;;;1.85;;
50543;SDS011;41176;44.032;20.900;2022-11-15T01:34:25;6.28;;;2.25;;
50543;SDS011;41176;44.032;20.900;2022-11-15T01:36:51;2.60;;;1.33;;
50543;SDS011;41176;44.032;20.900;2022-11-15T01:39:17;3.92;;;2.17;;
50543;SDS011;41176;44.032;20.900;2022-11-15T01:41:43;0.73;;;0.50;;
50543;SDS011;41176;44.032;20.900;2022-11-15T01:46:57;4.25;;;2.13;;
50543;SDS011;41176;44.032;20.900;2022-11-15T01:49:26;2.45;;;2.00;;
50543;SDS011;41176;44.032;20.900;2022-11-15T01:51:55;2.88;;;2.08;;
50543;SDS011;41176;44.032;20.900;2022-11-15T01:54:22;6.07;;;1.75;;
50543;SDS011;41176;44.032;20.900;2022-11-15T01:56:51;2.05;;;1.45;;
50543;SDS011;41176;44.032;20.900;2022-11-15T01:59:21;7.28;;;2.80;;
50543;SDS011;41176;44.032;20.900;2022-11-15T02:01:47;3.13;;;1.55;;
50543;SDS011;41176;44.032;20.900;2022-11-15T02:04:19;3.53;;;1.40;;
50543;SDS011;41176;44.032;20.900;2022-11-15T02:07:14;4.43;;;2.55;;
50543;SDS011;41176;44.032;20.900;2022-11-15T02:09:42;2.15;;;1.45;;
50543;SDS011;41176;44.032;20.900;2022-11-15T02:12:09;3.47;;;2.03;;
50543;SDS011;41176;44.032;20.900;2022-11-15T02:14:37;2.58;;;1.25;;
50543;SDS011;41176;44.032;20.900;2022-11-15T02:17:12;4.00;;;1.90;;
50543;SDS011;41176;44.032;20.900;2022-11-15T02:28:53;3.20;;;2.73;;
50543;SDS011;41176;44.032;20.900;2022-11-15T02:34:04;2.47;;;1.73;;
50543;SDS011;41176;44.032;20.900;2022-11-15T02:37:28;4.45;;;1.45;;
50543;SDS011;41176;44.032;20.900;2022-11-15T02:39:39;3.58;;;1.92;;
50543;SDS011;41176;44.032;20.900;2022-11-15T02:42:19;2.25;;;1.27;;
50543;SDS011;41176;44.032;20.900;2022-11-15T02:45:07;5.63;;;2.40;;
50543;SDS011;41176;44.032;20.900;2022-11-15T02:47:43;4.57;;;2.60;;
50543;SDS011;41176;44.032;20.900;2022-11-15T02:50:12;3.28;;;1.30;;
50543;SDS011;41176;44.032;20.900;2022-11-15T02:52:45;3.72;;;2.15;;
50543;SDS011;41176;44.032;20.900;2022-11-15T02:55:31;3.10;;;1.67;;
50543;SDS011;41176;44.032;20.900;2022-11-15T03:00:49;3.67;;;1.20;;
50543;SDS011;41176;44.032;20.900;2022-11-15T03:12:04;3.05;;;1.45;;
50543;SDS011;41176;44.032;20.900;2022-11-15T03:14:51;1.65;;;1.48;;
50543;SDS011;41176;44.032;20.900;2022-11-15T03:17:33;2.95;;;0.82;;
50543;SDS011;41176;44.032;20.900;2022-11-15T03:20:11;4.53;;;2.45;;
50543;SDS011;41176;44.032;20.900;2022-11-15T03:22:42;2.25;;;1.08;;
50543;SDS011;41176;44.032;20.900;2022-11-15T03:25:10;3.97;;;1.27;;
50543;SDS011;41176;44.032;20.900;2022-11-15T03:27:41;2.28;;;1.23;;
50543;SDS011;41176;44.032;20.900;2022-11-15T03:30:11;4.22;;;1.42;;
50543;SDS011;41176;44.032;20.900;2022-11-15T03:32:40;1.30;;;0.90;;
50543;SDS011;41176;44.032;20.900;2022-11-15T03:35:30;3.85;;;1.42;;
50543;SDS011;41176;44.032;20.900;2022-11-15T03:38:08;2.80;;;1.23;;
50543;SDS011;41176;44.032;20.900;2022-11-15T03:40:47;1.73;;;1.08;;
50543;SDS011;41176;44.032;20.900;2022-11-15T03:43:24;1.92;;;1.20;;
50543;SDS011;41176;44.032;20.900;2022-11-15T03:46:28;3.85;;;1.58;;
50543;SDS011;41176;44.032;20.900;2022-11-15T03:49:06;1.58;;;1.02;;
50543;SDS011;41176;44.032;20.900;2022-11-15T03:51:35;2.03;;;1.15;;
50543;SDS011;41176;44.032;20.900;2022-11-15T03:54:06;1.58;;;1.20;;
50543;SDS011;41176;44.032;20.900;2022-11-15T03:56:32;2.78;;;2.08;;
50543;SDS011;41176;44.032;20.900;2022-11-15T03:58:58;2.28;;;1.65;;
50543;SDS011;41176;44.032;20.900;2022-11-15T04:01:26;2.60;;;1.15;;
50543;SDS011;41176;44.032;20.900;2022-11-15T04:03:52;1.88;;;1.20;;
50543;SDS011;41176;44.032;20.900;2022-11-15T04:06:18;4.07;;;2.25;;
50543;SDS011;41176;44.032;20.900;2022-11-15T04:08:43;1.52;;;0.98;;
50543;SDS011;41176;44.032;20.900;2022-11-15T04:11:09;3.60;;;1.27;;
50543;SDS011;41176;44.032;20.900;2022-11-15T04:13:35;1.08;;;0.98;;
50543;SDS011;41176;44.032;20.900;2022-11-15T04:16:01;2.70;;;1.13;;
50543;SDS011;41176;44.032;20.900;2022-11-15T04:18:26;3.58;;;2.60;;
50543;SDS011;41176;44.032;20.900;2022-11-15T04:20:55;1.00;;;0.82;;
50543;SDS011;41176;44.032;20.900;2022-11-15T04:23:39;4.97;;;1.65;;
50543;SDS011;41176;44.032;20.900;2022-11-15T04:26:23;3.00;;;2.05;;
50543;SDS011;41176;44.032;20.900;2022-11-15T04:28:49;1.00;;;0.60;;
50543;SDS011;41176;44.032;20.900;2022-11-15T04:31:35;0.80;;;0.65;;
50543;SDS011;41176;44.032;20.900;2022-11-15T04:34:01;1.30;;;0.88;;
50543;SDS011;41176;44.032;20.900;2022-11-15T04:36:27;0.93;;;0.45;;
50543;SDS011;41176;44.032;20.900;2022-11-15T04:39:11;1.27;;;1.17;;
50543;SDS011;41176;44.032;20.900;2022-11-15T04:41:38;3.08;;;1.92;;
50543;SDS011;41176;44.032;20.900;2022-11-15T04:44:03;1.42;;;0.95;;
50543;SDS011;41176;44.032;20.900;2022-11-15T04:46:29;1.42;;;0.90;;
50543;SDS011;41176;44.032;20.900;2022-11-15T04:48:55;1.65;;;1.48;;
50543;SDS011;41176;44.032;20.900;2022-11-15T04:51:21;2.53;;;1.67;;
50543;SDS011;41176;44.032;20.900;2022-11-15T04:53:47;3.53;;;1.33;;
50543;SDS011;41176;44.032;20.900;2022-11-15T04:56:13;4.45;;;2.00;;
50543;SDS011;41176;44.032;20.900;2022-11-15T04:58:38;12.77;;;1.98;;
50543;SDS011;41176;44.032;20.900;2022-11-15T05:01:07;1.75;;;1.20;;
50543;SDS011;41176;44.032;20.900;2022-11-15T05:03:33;3.65;;;1.65;;
50543;SDS011;41176;44.032;20.900;2022-11-15T05:06:17;0.80;;;0.60;;
50543;SDS011;41176;44.032;20.900;2022-11-15T05:08:43;1.95;;;1.52;;
50543;SDS011;41176;44.032;20.900;2022-11-15T05:11:09;1.05;;;0.88;;
50543;SDS011;41176;44.032;20.900;2022-11-15T05:13:34;1.35;;;1.25;;
50543;SDS011;41176;44.032;20.900;2022-11-15T05:16:02;1.00;;;0.70;;
50543;SDS011;41176;44.032;20.900;2022-11-15T05:18:28;3.08;;;2.15;;
50543;SDS011;41176;44.032;20.900;2022-11-15T05:20:54;2.38;;;1.27;;
50543;SDS011;41176;44.032;20.900;2022-11-15T05:23:20;2.25;;;1.67;;
50543;SDS011;41176;44.032;20.900;2022-11-15T05:25:46;15.60;;;1.58;;
50543;SDS011;41176;44.032;20.900;2022-11-15T05:28:12;4.82;;;2.00;;
50543;SDS011;41176;44.032;20.900;2022-11-15T05:30:37;1.38;;;1.10;;
50543;SDS011;41176;44.032;20.900;2022-11-15T05:33:03;1.45;;;0.95;;
50543;SDS011;41176;44.032;20.900;2022-11-15T05:35:30;2.28;;;1.35;;
50543;SDS011;41176;44.032;20.900;2022-11-15T05:38:08;2.10;;;0.60;;
50543;SDS011;41176;44.032;20.900;2022-11-15T05:40:33;2.80;;;1.55;;
50543;SDS011;41176;44.032;20.900;2022-11-15T05:43:00;1.88;;;1.35;;
50543;SDS011;41176;44.032;20.900;2022-11-15T05:45:28;2.95;;;0.90;;
50543;SDS011;41176;44.032;20.900;2022-11-15T05:47:55;2.08;;;1.85;;
50543;SDS011;41176;44.032;20.900;2022-11-15T05:50:23;2.67;;;1.70;;
50543;SDS011;41176;44.032;20.900;2022-11-15T05:52:49;2.97;;;1.05;;
50543;SDS011;41176;44.032;20.900;2022-11-15T05:55:16;1.38;;;1.08;;
50543;SDS011;41176;44.032;20.900;2022-11-15T05:57:42;4.78;;;1.38;;
50543;SDS011;41176;44.032;20.900;2022-11-15T06:00:08;1.35;;;1.05;;
50543;SDS011;41176;44.032;20.900;2022-11-15T06:02:34;1.88;;;1.10;;
50543;SDS011;41176;44.032;20.900;2022-11-15T06:05:00;3.08;;;1.00;;
50543;SDS011;41176;44.032;20.900;2022-11-15T06:07:26;3.42;;;2.08;;
50543;SDS011;41176;44.032;20.900;2022-11-15T06:09:53;1.98;;;1.10;;
50543;SDS011;41176;44.032;20.900;2022-11-15T06:12:19;3.28;;;1.85;;
50543;SDS011;41176;44.032;20.900;2022-11-15T06:14:45;2.75;;;1.35;;
50543;SDS011;41176;44.032;20.900;2022-11-15T06:17:10;3.05;;;1.55;;
50543;SDS011;41176;44.032;20.900;2022-11-15T06:19:36;2.80;;;1.42;;
50543;SDS011;41176;44.032;20.900;2022-11-15T06:22:02;4.88;;;2.17;;
50543;SDS011;41176;44.032;20.900;2022-11-15T06:24:27;1.90;;;1.35;;
50543;SDS011;41176;44.032;20.900;2022-11-15T06:26:53;3.55;;;1.85;;
50543;SDS011;41176;44.032;20.900;2022-11-15T06:29:19;1.27;;;1.15;;
50543;SDS011;41176;44.032;20.900;2022-11-15T06:31:45;1.67;;;1.05;;
50543;SDS011;41176;44.032;20.900;2022-11-15T06:34:10;3.80;;;2.95;;
50543;SDS011;41176;44.032;20.900;2022-11-15T06:36:36;3.65;;;1.75;;
50543;SDS011;41176;44.032;20.900;2022-11-15T06:39:03;2.55;;;1.23;;
50543;SDS011;41176;44.032;20.900;2022-11-15T06:41:29;4.55;;;1.42;;
50543;SDS011;41176;44.032;20.900;2022-11-15T06:43:56;4.70;;;2.03;;
50543;SDS011;41176;44.032;20.900;2022-11-15T06:46:22;2.95;;;1.65;;
50543;SDS011;41176;44.032;20.900;2022-11-15T06:48:50;3.67;;;1.67;;
50543;SDS011;41176;44.032;20.900;2022-11-15T06:51:16;1.85;;;1.17;;
50543;SDS011;41176;44.032;20.900;2022-11-15T06:53:42;3.10;;;1.83;;
50543;SDS011;41176;44.032;20.900;2022-11-15T06:56:08;4.13;;;1.83;;
50543;SDS011;41176;44.032;20.900;2022-11-15T06:58:35;2.15;;;1.00;;
50543;SDS011;41176;44.032;20.900;2022-11-15T07:01:01;6.13;;;1.75;;
50543;SDS011;41176;44.032;20.900;2022-11-15T07:03:29;4.15;;;1.15;;
50543;SDS011;41176;44.032;20.900;2022-11-15T07:05:55;1.23;;;0.75;;
50543;SDS011;41176;44.032;20.900;2022-11-15T07:08:23;4.78;;;1.90;;
50543;SDS011;41176;44.032;20.900;2022-11-15T07:10:49;4.45;;;1.27;;
50543;SDS011;41176;44.032;20.900;2022-11-15T07:13:15;4.32;;;1.75;;
50543;SDS011;41176;44.032;20.900;2022-11-15T07:15:41;1.13;;;0.90;;
50543;SDS011;41176;44.032;20.900;2022-11-15T07:18:07;3.65;;;1.77;;
50543;SDS011;41176;44.032;20.900;2022-11-15T07:20:32;2.45;;;1.35;;
50543;SDS011;41176;44.032;20.900;2022-11-15T07:23:04;2.58;;;1.45;;
50543;SDS011;41176;44.032;20.900;2022-11-15T07:25:31;3.03;;;2.03;;
50543;SDS011;41176;44.032;20.900;2022-11-15T07:27:57;2.20;;;1.10;;
50543;SDS011;41176;44.032;20.900;2022-11-15T07:30:24;2.88;;;1.42;;
50543;SDS011;41176;44.032;20.900;2022-11-15T07:33:04;3.10;;;1.58;;
50543;SDS011;41176;44.032;20.900;2022-11-15T07:35:30;2.88;;;1.92;;
50543;SDS011;41176;44.032;20.900;2022-11-15T07:38:00;4.00;;;1.98;;
50543;SDS011;41176;44.032;20.900;2022-11-15T07:40:29;5.25;;;2.15;;
50543;SDS011;41176;44.032;20.900;2022-11-15T07:43:03;2.17;;;1.35;;
50543;SDS011;41176;44.032;20.900;2022-11-15T07:45:31;3.03;;;1.52;;
50543;SDS011;41176;44.032;20.900;2022-11-15T07:47:58;1.40;;;0.82;;
50543;SDS011;41176;44.032;20.900;2022-11-15T07:50:25;1.95;;;1.13;;
50543;SDS011;41176;44.032;20.900;2022-11-15T07:52:54;3.83;;;2.75;;
50543;SDS011;41176;44.032;20.900;2022-11-15T07:55:21;3.15;;;1.08;;
50543;SDS011;41176;44.032;20.900;2022-11-15T07:57:48;2.40;;;1.60;;
50543;SDS011;41176;44.032;20.900;2022-11-15T08:00:14;2.35;;;1.48;;
50543;SDS011;41176;44.032;20.900;2022-11-15T08:02:40;8.15;;;1.27;;
50543;SDS011;41176;44.032;20.900;2022-11-15T08:05:15;1.40;;;1.00;;
50543;SDS011;41176;44.032;20.900;2022-11-15T08:07:41;1.52;;;1.08;;
50543;SDS011;41176;44.032;20.900;2022-11-15T08:10:07;2.72;;;1.27;;
50543;SDS011;41176;44.032;20.900;2022-11-15T08:12:33;1.75;;;1.05;;
50543;SDS011;41176;44.032;20.900;2022-11-15T08:15:02;5.10;;;2.05;;
50543;SDS011;41176;44.032;20.900;2022-11-15T08:17:27;3.85;;;2.03;;
50543;SDS011;41176;44.032;20.900;2022-11-15T08:19:56;1.98;;;0.93;;
50543;SDS011;41176;44.032;20.900;2022-11-15T08:22:22;3.60;;;1.77;;
50543;SDS011;41176;44.032;20.900;2022-11-15T08:24:48;3.88;;;1.85;;
50543;SDS011;41176;44.032;20.900;2022-11-15T08:27:13;2.45;;;1.45;;
50543;SDS011;41176;44.032;20.900;2022-11-15T08:29:45;4.40;;;2.28;;
50543;SDS011;41176;44.032;20.900;2022-11-15T08:32:12;7.30;;;2.47;;
50543;SDS011;41176;44.032;20.900;2022-11-15T08:34:38;5.03;;;1.88;;
50543;SDS011;41176;44.032;20.900;2022-11-15T08:37:04;4.25;;;2.20;;
50543;SDS011;41176;44.032;20.900;2022-11-15T08:39:30;3.65;;;1.77;;
50543;SDS011;41176;44.032;20.900;2022-11-15T08:41:55;5.38;;;1.70;;
50543;SDS011;41176;44.032;20.900;2022-11-15T08:44:21;2.33;;;1.55;;
50543;SDS011;41176;44.032;20.900;2022-11-15T08:46:49;5.07;;;2.10;;
50543;SDS011;41176;44.032;20.900;2022-11-15T08:49:14;2.45;;;1.05;;
50543;SDS011;41176;44.032;20.900;2022-11-15T08:51:40;6.10;;;2.78;;
50543;SDS011;41176;44.032;20.900;2022-11-15T08:54:06;2.45;;;1.63;;
50543;SDS011;41176;44.032;20.900;2022-11-15T08:56:32;3.67;;;1.77;;
50543;SDS011;41176;44.032;20.900;2022-11-15T08:58:57;4.45;;;1.70;;
50543;SDS011;41176;44.032;20.900;2022-11-15T09:01:23;2.42;;;1.50;;
50543;SDS011;41176;44.032;20.900;2022-11-15T09:03:49;3.63;;;1.27;;
50543;SDS011;41176;44.032;20.900;2022-11-15T09:06:15;4.97;;;2.03;;
50543;SDS011;41176;44.032;20.900;2022-11-15T09:08:40;5.97;;;2.38;;
50543;SDS011;41176;44.032;20.900;2022-11-15T09:11:07;3.45;;;1.50;;
50543;SDS011;41176;44.032;20.900;2022-11-15T09:13:37;3.63;;;1.80;;
50543;SDS011;41176;44.032;20.900;2022-11-15T09:16:05;3.85;;;1.83;;
50543;SDS011;41176;44.032;20.900;2022-11-15T09:18:31;4.75;;;2.05;;
50543;SDS011;41176;44.032;20.900;2022-11-15T09:20:58;7.35;;;2.78;;
50543;SDS011;41176;44.032;20.900;2022-11-15T09:23:25;4.70;;;2.90;;
50543;SDS011;41176;44.032;20.900;2022-11-15T09:25:51;2.92;;;1.45;;
50543;SDS011;41176;44.032;20.900;2022-11-15T09:28:18;3.00;;;1.85;;
50543;SDS011;41176;44.032;20.900;2022-11-15T09:30:44;3.22;;;1.63;;
50543;SDS011;41176;44.032;20.900;2022-11-15T09:33:10;4.97;;;2.22;;
50543;SDS011;41176;44.032;20.900;2022-11-15T09:35:37;5.80;;;2.17;;
50543;SDS011;41176;44.032;20.900;2022-11-15T09:38:03;3.97;;;2.10;;
50543;SDS011;41176;44.032;20.900;2022-11-15T09:40:29;3.55;;;1.83;;
50543;SDS011;41176;44.032;20.900;2022-11-15T09:43:15;5.40;;;2.20;;
50543;SDS011;41176;44.032;20.900;2022-11-15T09:46:31;6.03;;;2.20;;
50543;SDS011;41176;44.032;20.900;2022-11-15T09:51:35;5.13;;;2.17;;
50543;SDS011;41176;44.032;20.900;2022-11-15T09:54:13;3.83;;;2.00;;
50543;SDS011;41176;44.032;20.900;2022-11-15T09:59:38;9.05;;;3.10;;
50543;SDS011;41176;44.032;20.900;2022-11-15T10:05:10;3.78;;;1.88;;
50543;SDS011;41176;44.032;20.900;2022-11-15T10:10:11;5.35;;;2.33;;
50543;SDS011;41176;44.032;20.900;2022-11-15T10:12:44;3.10;;;1.92;;
50543;SDS011;41176;44.032;20.900;2022-11-15T10:15:21;7.30;;;3.53;;
50543;SDS011;41176;44.032;20.900;2022-11-15T10:20:49;5.13;;;2.78;;
50543;SDS011;41176;44.032;20.900;2022-11-15T10:23:19;2.67;;;1.33;;
50543;SDS011;41176;44.032;20.900;2022-11-15T10:25:47;5.82;;;2.53;;
50543;SDS011;41176;44.032;20.900;2022-11-15T10:28:22;6.55;;;1.73;;
50543;SDS011;41176;44.032;20.900;2022-11-15T10:30:53;7.13;;;3.35;;
50543;SDS011;41176;44.032;20.900;2022-11-15T10:38:39;3.17;;;1.45;;
50543;SDS011;41176;44.032;20.900;2022-11-15T10:41:27;4.47;;;1.70;;
50543;SDS011;41176;44.032;20.900;2022-11-15T10:47:20;4.35;;;2.22;;
50543;SDS011;41176;44.032;20.900;2022-11-15T10:49:55;3.78;;;2.17;;
50543;SDS011;41176;44.032;20.900;2022-11-15T10:52:22;2.83;;;1.88;;
50543;SDS011;41176;44.032;20.900;2022-11-15T10:57:25;3.88;;;1.90;;
50543;SDS011;41176;44.032;20.900;2022-11-15T11:00:38;6.40;;;2.38;;
50543;SDS011;41176;44.032;20.900;2022-11-15T11:05:29;4.47;;;2.25;;
50543;SDS011;41176;44.032;20.900;2022-11-15T11:11:01;4.15;;;2.80;;
50543;SDS011;41176;44.032;20.900;2022-11-15T11:13:30;4.55;;;2.38;;
50543;SDS011;41176;44.032;20.900;2022-11-15T11:36:18;4.38;;;1.95;;
50543;SDS011;41176;44.032;20.900;2022-11-15T11:46:49;3.95;;;2.08;;
50543;SDS011;41176;44.032;20.900;2022-11-15T11:54:52;4.20;;;2.53;;
50543;SDS011;41176;44.032;20.900;2022-11-15T12:00:09;7.20;;;3.05;;
50543;SDS011;41176;44.032;20.900;2022-11-15T12:02:43;3.20;;;2.30;;
50543;SDS011;41176;44.032;20.900;2022-11-15T12:05:22;5.65;;;2.13;;
50543;SDS011;41176;44.032;20.900;2022-11-15T12:08:09;4.38;;;2.13;;
50543;SDS011;41176;44.032;20.900;2022-11-15T12:10:40;3.88;;;1.88;;
50543;SDS011;41176;44.032;20.900;2022-11-15T12:13:19;4.32;;;2.03;;
50543;SDS011;41176;44.032;20.900;2022-11-15T12:18:44;5.40;;;1.90;;
50543;SDS011;41176;44.032;20.900;2022-11-15T12:21:16;4.05;;;2.13;;
50543;SDS011;41176;44.032;20.900;2022-11-15T12:23:52;5.68;;;2.95;;
50543;SDS011;41176;44.032;20.900;2022-11-15T12:26:25;4.80;;;2.03;;
50543;SDS011;41176;44.032;20.900;2022-11-15T12:28:54;5.40;;;2.28;;
50543;SDS011;41176;44.032;20.900;2022-11-15T12:31:29;3.75;;;1.90;;
50543;SDS011;41176;44.032;20.900;2022-11-15T12:34:04;5.00;;;2.28;;
50543;SDS011;41176;44.032;20.900;2022-11-15T12:36:50;6.72;;;2.67;;
50543;SDS011;41176;44.032;20.900;2022-11-15T12:39:19;4.60;;;1.95;;
50543;SDS011;41176;44.032;20.900;2022-11-15T13:02:18;5.28;;;2.22;;
50543;SDS011;41176;44.032;20.900;2022-11-15T13:30:40;7.13;;;3.30;;
50543;SDS011;41176;44.032;20.900;2022-11-15T13:33:55;9.15;;;3.75;;
50543;SDS011;41176;44.032;20.900;2022-11-15T13:36:03;10.27;;;3.25;;
50543;SDS011;41176;44.032;20.900;2022-11-15T13:38:33;7.68;;;2.47;;
50543;SDS011;41176;44.032;20.900;2022-11-15T13:41:11;4.88;;;2.58;;
50543;SDS011;41176;44.032;20.900;2022-11-15T13:43:49;4.53;;;2.15;;
50543;SDS011;41176;44.032;20.900;2022-11-15T13:46:19;5.93;;;1.83;;
50543;SDS011;41176;44.032;20.900;2022-11-15T13:48:50;7.10;;;2.63;;
50543;SDS011;41176;44.032;20.900;2022-11-15T13:51:32;5.55;;;2.30;;
50543;SDS011;41176;44.032;20.900;2022-11-15T13:54:20;3.58;;;2.30;;
50543;SDS011;41176;44.032;20.900;2022-11-15T13:56:53;4.22;;;2.15;;
50543;SDS011;41176;44.032;20.900;2022-11-15T13:59:29;4.03;;;2.17;;
50543;SDS011;41176;44.032;20.900;2022-11-15T14:01:59;5.70;;;2.63;;
50543;SDS011;41176;44.032;20.900;2022-11-15T14:04:27;3.45;;;2.67;;
50543;SDS011;41176;44.032;20.900;2022-11-15T14:06:58;4.53;;;2.17;;
50543;SDS011;41176;44.032;20.900;2022-11-15T14:09:33;5.20;;;1.67;;
50543;SDS011;41176;44.032;20.900;2022-11-15T14:12:02;2.88;;;1.73;;
50543;SDS011;41176;44.032;20.900;2022-11-15T14:14:46;4.40;;;2.75;;
50543;SDS011;41176;44.032;20.900;2022-11-15T14:17:19;8.13;;;2.70;;
50543;SDS011;41176;44.032;20.900;2022-11-15T14:20:18;7.28;;;3.25;;
50543;SDS011;41176;44.032;20.900;2022-11-15T14:22:51;5.43;;;2.95;;
50543;SDS011;41176;44.032;20.900;2022-11-15T14:25:41;8.15;;;3.72;;
50543;SDS011;41176;44.032;20.900;2022-11-15T14:30:51;8.95;;;3.47;;
50543;SDS011;41176;44.032;20.900;2022-11-15T14:33:27;5.30;;;3.25;;
50543;SDS011;41176;44.032;20.900;2022-11-15T14:35:54;13.13;;;3.40;;
50543;SDS011;41176;44.032;20.900;2022-11-15T14:38:24;6.60;;;3.17;;
50543;SDS011;41176;44.032;20.900;2022-11-15T14:40:53;6.85;;;4.00;;
50543;SDS011;41176;44.032;20.900;2022-11-15T14:43:26;6.00;;;2.80;;
50543;SDS011;41176;44.032;20.900;2022-11-15T14:45:55;11.98;;;3.30;;
50543;SDS011;41176;44.032;20.900;2022-11-15T14:48:21;10.82;;;4.43;;
50543;SDS011;41176;44.032;20.900;2022-11-15T14:50:47;9.52;;;4.50;;
50543;SDS011;41176;44.032;20.900;2022-11-15T14:53:17;5.18;;;3.05;;
50543;SDS011;41176;44.032;20.900;2022-11-15T14:55:43;6.18;;;3.58;;
50543;SDS011;41176;44.032;20.900;2022-11-15T14:58:09;4.97;;;1.92;;
50543;SDS011;41176;44.032;20.900;2022-11-15T15:00:38;6.80;;;3.63;;
50543;SDS011;41176;44.032;20.900;2022-11-15T15:03:05;11.18;;;4.97;;
50543;SDS011;41176;44.032;20.900;2022-11-15T15:05:44;5.90;;;3.72;;
50543;SDS011;41176;44.032;20.900;2022-11-15T15:11:24;7.78;;;4.28;;
50543;SDS011;41176;44.032;20.900;2022-11-15T15:13:52;9.30;;;5.07;;
50543;SDS011;41176;44.032;20.900;2022-11-15T15:16:20;10.18;;;4.22;;
50543;SDS011;41176;44.032;20.900;2022-11-15T15:18:46;7.72;;;3.83;;
50543;SDS011;41176;44.032;20.900;2022-11-15T15:21:22;9.80;;;4.93;;
50543;SDS011;41176;44.032;20.900;2022-11-15T15:26:15;10.38;;;3.10;;
50543;SDS011;41176;44.032;20.900;2022-11-15T15:28:43;5.10;;;2.95;;
50543;SDS011;41176;44.032;20.900;2022-11-15T15:31:15;7.63;;;3.72;;
50543;SDS011;41176;44.032;20.900;2022-11-15T15:33:41;6.53;;;4.28;;
50543;SDS011;41176;44.032;20.900;2022-11-15T15:36:13;11.50;;;5.97;;
50543;SDS011;41176;44.032;20.900;2022-11-15T15:38:44;7.63;;;4.43;;
50543;SDS011;41176;44.032;20.900;2022-11-15T15:41:11;8.65;;;4.82;;
50543;SDS011;41176;44.032;20.900;2022-11-15T15:43:38;5.47;;;3.40;;
50543;SDS011;41176;44.032;20.900;2022-11-15T15:46:07;8.48;;;3.38;;
50543;SDS011;41176;44.032;20.900;2022-11-15T15:48:37;6.85;;;4.13;;
50543;SDS011;41176;44.032;20.900;2022-11-15T15:51:04;8.38;;;3.97;;
50543;SDS011;41176;44.032;20.900;2022-11-15T15:53:30;12.45;;;5.22;;
50543;SDS011;41176;44.032;20.900;2022-11-15T15:55:56;9.65;;;5.75;;
50543;SDS011;41176;44.032;20.900;2022-11-15T15:58:22;20.05;;;7.20;;
50543;SDS011;41176;44.032;20.900;2022-11-15T16:00:48;10.43;;;5.40;;
50543;SDS011;41176;44.032;20.900;2022-11-15T16:03:14;9.75;;;5.53;;
50543;SDS011;41176;44.032;20.900;2022-11-15T16:05:40;8.23;;;4.85;;
50543;SDS011;41176;44.032;20.900;2022-11-15T16:08:05;9.25;;;4.25;;
50543;SDS011;41176;44.032;20.900;2022-11-15T16:10:52;10.73;;;5.03;;
50543;SDS011;41176;44.032;20.900;2022-11-15T16:13:18;10.00;;;5.25;;
50543;SDS011;41176;44.032;20.900;2022-11-15T16:15:44;10.80;;;4.95;;
50543;SDS011;41176;44.032;20.900;2022-11-15T16:18:15;13.95;;;4.57;;
50543;SDS011;41176;44.032;20.900;2022-11-15T16:20:48;13.35;;;7.35;;
50543;SDS011;41176;44.032;20.900;2022-11-15T16:23:21;15.85;;;6.97;;
50543;SDS011;41176;44.032;20.900;2022-11-15T16:25:53;18.67;;;6.68;;
50543;SDS011;41176;44.032;20.900;2022-11-15T16:28:22;18.65;;;7.82;;
50543;SDS011;41176;44.032;20.900;2022-11-15T16:30:58;11.70;;;6.20;;
50543;SDS011;41176;44.032;20.900;2022-11-15T16:33:33;13.35;;;6.60;;
50543;SDS011;41176;44.032;20.900;2022-11-15T16:36:00;11.65;;;5.38;;
50543;SDS011;41176;44.032;20.900;2022-11-15T16:38:45;13.05;;;8.38;;
50543;SDS011;41176;44.032;20.900;2022-11-15T16:41:11;11.00;;;6.63;;
50543;SDS011;41176;44.032;20.900;2022-11-15T16:43:37;6.50;;;4.40;;
50543;SDS011;41176;44.032;20.900;2022-11-15T16:46:06;8.38;;;4.75;;
50543;SDS011;41176;44.032;20.900;2022-11-15T16:48:37;10.02;;;5.85;;
50543;SDS011;41176;44.032;20.900;2022-11-15T16:51:04;17.40;;;7.57;;
50543;SDS011;41176;44.032;20.900;2022-11-15T16:53:30;11.60;;;5.72;;
50543;SDS011;41176;44.032;20.900;2022-11-15T16:55:56;21.35;;;7.65;;
50543;SDS011;41176;44.032;20.900;2022-11-15T16:58:22;19.77;;;9.35;;
50543;SDS011;41176;44.032;20.900;2022-11-15T17:00:49;17.83;;;9.65;;
50543;SDS011;41176;44.032;20.900;2022-11-15T17:03:19;17.10;;;6.97;;
50543;SDS011;41176;44.032;20.900;2022-11-15T17:05:45;9.93;;;6.78;;
50543;SDS011;41176;44.032;20.900;2022-11-15T17:08:11;11.23;;;6.85;;
50543;SDS011;41176;44.032;20.900;2022-11-15T17:10:38;11.05;;;5.32;;
50543;SDS011;41176;44.032;20.900;2022-11-15T17:13:11;11.13;;;5.03;;
50543;SDS011;41176;44.032;20.900;2022-11-15T17:15:38;8.68;;;4.85;;
50543;SDS011;41176;44.032;20.900;2022-11-15T17:18:04;9.05;;;4.60;;
50543;SDS011;41176;44.032;20.900;2022-11-15T17:20:31;9.68;;;4.93;;